createdAt,value
2023-05-11T00:02:25.009Z,8.48
2023-05-11T00:04:56.885Z,8.47
2023-05-11T00:07:29.602Z,8.47
2023-05-11T00:10:01.517Z,8.48
2023-05-11T00:12:33.517Z,8.47
2023-05-11T00:15:05.796Z,8.49
2023-05-11T00:17:37.631Z,8.48
2023-05-11T00:20:09.950Z,8.52
2023-05-11T00:22:44.106Z,8.52
2023-05-11T00:25:15.116Z,8.56
2023-05-11T00:27:46.816Z,8.56
2023-05-11T00:30:19.101Z,8.57
2023-05-11T00:32:53.008Z,8.58
2023-05-11T00:35:25.123Z,8.59
2023-05-11T00:37:57.155Z,8.58
2023-05-11T00:40:28.989Z,8.57
2023-05-11T00:43:00.673Z,8.56
2023-05-11T00:45:34.092Z,8.56
2023-05-11T00:48:05.862Z,8.56
2023-05-11T00:50:38.631Z,8.56
2023-05-11T00:53:11.621Z,8.56
2023-05-11T00:55:43.357Z,8.58
2023-05-11T00:58:16.646Z,8.59
2023-05-11T01:00:48.951Z,8.61
2023-05-11T01:03:20.954Z,8.62
2023-05-11T01:06:12.541Z,8.63
2023-05-11T01:08:49.773Z,8.64
2023-05-11T01:11:44.414Z,8.66
2023-05-11T01:14:19.109Z,8.67
2023-05-11T01:16:53.135Z,8.67
2023-05-11T01:19:49.636Z,8.68
2023-05-11T01:22:33.985Z,8.67
2023-05-11T01:25:20.682Z,8.66
2023-05-11T01:28:15.860Z,8.65
2023-05-11T01:30:58.925Z,8.65
2023-05-11T01:33:32.928Z,8.63
2023-05-11T01:36:09.969Z,8.59
2023-05-11T01:38:42.679Z,8.57
2023-05-11T01:41:17.467Z,8.56
2023-05-11T01:43:52.385Z,8.55
2023-05-11T01:46:26.439Z,8.54
2023-05-11T01:48:58.243Z,8.55
2023-05-11T01:51:31.651Z,8.55
2023-05-11T01:54:03.347Z,8.54
2023-05-11T01:56:37.347Z,8.52
2023-05-11T01:59:09.032Z,8.52
2023-05-11T02:01:40.795Z,8.54
2023-05-11T02:04:13.355Z,8.52
2023-05-11T02:06:45.224Z,8.50
2023-05-11T02:09:18.045Z,8.50
2023-05-11T02:11:50.484Z,8.48
2023-05-11T02:14:22.298Z,8.46
2023-05-11T02:16:54.393Z,8.43
2023-05-11T02:19:26.351Z,8.43
2023-05-11T02:21:57.903Z,8.41
2023-05-11T02:24:29.707Z,8.38
2023-05-11T02:27:01.303Z,8.37
2023-05-11T02:29:33.740Z,8.34
2023-05-11T02:32:11.301Z,8.31
2023-05-11T02:34:44.424Z,8.29
2023-05-11T02:37:18.263Z,8.28
2023-05-11T02:39:51.225Z,8.26
2023-05-11T02:42:23.836Z,8.24
2023-05-11T02:45:04.587Z,8.23
2023-05-11T02:47:40.871Z,8.21
2023-05-11T02:50:13.803Z,8.21
2023-05-11T02:52:47.460Z,8.26
2023-05-11T02:55:19.447Z,8.30
2023-05-11T02:57:51.503Z,8.33
2023-05-11T03:00:23.570Z,8.35
2023-05-11T03:02:55.992Z,8.36
2023-05-11T03:05:27.976Z,8.40
2023-05-11T03:08:00.277Z,8.47
2023-05-11T03:10:33.393Z,8.53
2023-05-11T03:13:06.364Z,8.59
2023-05-11T03:15:38.638Z,8.67
2023-05-11T03:18:10.858Z,8.76
2023-05-11T03:20:43.160Z,8.81
2023-05-11T03:23:14.812Z,8.87
2023-05-11T03:25:46.747Z,8.94
2023-05-11T03:28:18.612Z,9.01
2023-05-11T03:30:51.982Z,9.07
2023-05-11T03:33:23.746Z,9.11
2023-05-11T03:35:55.608Z,9.13
2023-05-11T03:38:27.889Z,9.16
2023-05-11T03:40:59.859Z,9.17
2023-05-11T03:43:33.465Z,9.17
2023-05-11T03:46:05.338Z,9.18
2023-05-11T03:48:37.166Z,9.18
2023-05-11T03:51:09.559Z,9.17
2023-05-11T03:53:41.275Z,9.18
2023-05-11T03:56:13.148Z,9.18
2023-05-11T03:58:45.055Z,9.19
2023-05-11T04:01:16.646Z,9.23
2023-05-11T04:03:53.886Z,9.25
2023-05-11T04:06:26.202Z,9.29
2023-05-11T04:08:59.467Z,9.33
2023-05-11T04:11:31.199Z,9.38
2023-05-11T04:14:02.820Z,9.43
2023-05-11T04:16:34.709Z,9.50
2023-05-11T04:19:07.404Z,9.56
2023-05-11T04:21:39.572Z,9.63
2023-05-11T04:24:11.254Z,9.73
2023-05-11T04:26:43.631Z,9.83
2023-05-11T04:29:15.457Z,9.95
2023-05-11T04:31:46.991Z,10.08
2023-05-11T04:34:18.931Z,10.19
2023-05-11T04:36:51.404Z,10.29
2023-05-11T04:39:23.199Z,10.33
2023-05-11T04:41:54.959Z,10.41
2023-05-11T04:44:39.286Z,10.52
2023-05-11T04:47:11.005Z,10.66
2023-05-11T04:49:44.305Z,10.83
2023-05-11T04:52:16.263Z,10.98
2023-05-11T04:54:49.517Z,11.11
2023-05-11T04:57:21.182Z,11.23
2023-05-11T04:59:52.966Z,11.37
2023-05-11T05:02:25.092Z,11.49
2023-05-11T05:04:56.663Z,11.60
2023-05-11T05:07:28.738Z,11.77
2023-05-11T05:10:00.840Z,11.93
2023-05-11T05:12:32.702Z,12.09
2023-05-11T05:15:05.716Z,12.24
2023-05-11T05:17:37.452Z,12.40
2023-05-11T05:20:09.511Z,12.54
2023-05-11T05:22:41.911Z,12.65
2023-05-11T05:25:13.952Z,12.75
2023-05-11T05:27:46.044Z,12.82
2023-05-11T05:30:20.233Z,12.93
2023-05-11T05:32:53.060Z,13.07
2023-05-11T05:35:24.654Z,13.18
2023-05-11T05:37:57.264Z,13.28
2023-05-11T05:40:29.436Z,13.41
2023-05-11T05:43:01.282Z,13.53
2023-05-11T05:45:33.705Z,13.65
2023-05-11T05:48:06.352Z,14.02
2023-05-11T05:50:49.239Z,14.47
2023-05-11T05:53:21.602Z,14.93
2023-05-11T05:55:53.499Z,15.34
2023-05-11T05:58:25.456Z,15.77
2023-05-11T06:00:57.351Z,16.12
2023-05-11T06:03:29.625Z,16.31
2023-05-11T06:06:04.756Z,16.43
2023-05-11T06:08:49.106Z,16.67
2023-05-11T06:11:21.945Z,16.96
2023-05-11T06:13:54.905Z,17.21
2023-05-11T06:16:27.774Z,17.42
2023-05-11T06:18:59.594Z,17.61
2023-05-11T06:21:31.552Z,17.85
2023-05-11T06:24:03.829Z,18.03
2023-05-11T06:26:37.492Z,18.19
2023-05-11T06:29:09.830Z,18.20
2023-05-11T06:31:42.302Z,18.21
2023-05-11T06:34:14.031Z,18.25
2023-05-11T06:36:46.088Z,18.29
2023-05-11T06:39:17.981Z,18.42
2023-05-11T06:41:51.285Z,18.56
2023-05-11T06:44:23.033Z,18.55
2023-05-11T06:46:56.715Z,18.57
2023-05-11T06:49:28.810Z,18.59
2023-05-11T06:52:00.705Z,18.64
2023-05-11T06:54:32.732Z,18.67
2023-05-11T06:57:05.357Z,18.59
2023-05-11T06:59:37.009Z,18.60
2023-05-11T07:02:09.550Z,18.68
2023-05-11T07:04:41.458Z,18.68
2023-05-11T07:07:13.263Z,18.77
2023-05-11T07:09:45.844Z,18.84
2023-05-11T07:12:17.415Z,18.91
2023-05-11T07:14:49.809Z,19.08
2023-05-11T07:17:21.494Z,19.20
2023-05-11T07:19:56.954Z,19.38
2023-05-11T07:22:28.698Z,19.51
2023-05-11T07:25:01.696Z,19.64
2023-05-11T07:27:34.918Z,19.69
2023-05-11T07:30:07.971Z,19.69
2023-05-11T07:32:39.645Z,19.69
2023-05-11T07:35:11.582Z,19.84
2023-05-11T07:37:43.490Z,19.97
2023-05-11T07:40:15.117Z,20.12
2023-05-11T07:42:48.487Z,20.26
2023-05-11T07:45:20.056Z,20.27
2023-05-11T07:47:51.794Z,20.41
2023-05-11T07:50:24.680Z,20.54
2023-05-11T07:52:57.038Z,20.58
2023-05-11T07:55:30.730Z,20.60
2023-05-11T07:58:02.576Z,20.62
2023-05-11T08:00:34.405Z,20.80
2023-05-11T08:03:06.681Z,21.03
2023-05-11T08:05:39.055Z,21.11
2023-05-11T08:08:10.943Z,21.04
2023-05-11T08:10:42.756Z,21.11
2023-05-11T08:13:14.634Z,21.27
2023-05-11T08:15:46.381Z,21.44
2023-05-11T08:18:18.402Z,21.55
2023-05-11T08:20:50.536Z,21.64
2023-05-11T08:23:23.298Z,21.80
2023-05-11T08:25:56.211Z,21.96
2023-05-11T08:28:27.976Z,22.12
2023-05-11T08:31:00.118Z,22.03
2023-05-11T08:33:37.985Z,21.82
2023-05-11T08:36:06.649Z,21.52
2023-05-11T08:38:38.588Z,21.26
2023-05-11T08:41:14.400Z,21.06
2023-05-11T08:43:47.390Z,20.98
2023-05-11T08:46:21.783Z,20.82
2023-05-11T08:48:53.403Z,20.59
2023-05-11T08:51:25.312Z,20.45
2023-05-11T08:53:58.823Z,20.29
2023-05-11T08:56:31.052Z,20.11
2023-05-11T08:59:03.723Z,19.90
2023-05-11T09:01:40.114Z,19.64
2023-05-11T09:04:11.922Z,19.47
2023-05-11T09:06:43.908Z,19.31
2023-05-11T09:09:16.857Z,19.20
2023-05-11T09:11:49.166Z,19.13
2023-05-11T09:14:27.005Z,19.18
2023-05-11T09:16:54.588Z,19.23
2023-05-11T09:19:37.235Z,19.20
2023-05-11T09:22:09.126Z,19.32
2023-05-11T09:24:43.178Z,19.58
2023-05-11T09:27:21.136Z,19.90
2023-05-11T09:29:52.291Z,20.17
2023-05-11T09:32:23.859Z,20.39
2023-05-11T09:34:57.125Z,20.72
2023-05-11T09:37:28.778Z,21.04
2023-05-11T09:42:35.374Z,21.69
2023-05-11T09:45:08.244Z,21.71
2023-05-11T09:47:41.095Z,21.93
2023-05-11T09:52:52.615Z,22.24
2023-05-11T09:55:24.409Z,22.35
2023-05-11T09:57:58.283Z,22.58
2023-05-11T10:00:29.800Z,22.62
2023-05-11T10:03:05.970Z,22.65
2023-05-11T10:05:37.690Z,22.70
2023-05-11T10:08:09.682Z,22.70
2023-05-11T10:10:41.242Z,22.73
2023-05-11T10:13:13.208Z,22.78
2023-05-11T10:15:44.887Z,22.76
2023-05-11T10:18:20.099Z,22.76
2023-05-11T10:20:50.946Z,22.88
2023-05-11T10:23:22.499Z,23.08
2023-05-11T10:25:54.974Z,23.02
2023-05-11T10:28:26.589Z,22.71
2023-05-11T10:30:59.050Z,22.55
2023-05-11T10:33:31.230Z,22.60
2023-05-11T10:36:03.529Z,22.77
2023-05-11T10:38:35.627Z,22.96
2023-05-11T10:41:10.669Z,22.93
2023-05-11T10:43:45.835Z,22.85
2023-05-11T10:46:30.630Z,22.97
2023-05-11T10:49:23.919Z,23.18
2023-05-11T10:52:26.345Z,23.19
2023-05-11T10:55:23.163Z,23.20
2023-05-11T10:58:10.549Z,22.94
2023-05-11T11:01:15.884Z,22.69
2023-05-11T11:04:04.549Z,22.45
2023-05-11T11:06:38.938Z,22.25
2023-05-11T11:09:15.874Z,22.24
2023-05-11T11:11:50.323Z,22.14
2023-05-11T11:14:22.191Z,21.93
2023-05-11T11:20:01.830Z,21.69
2023-05-11T11:25:37.948Z,21.67
2023-05-11T11:28:09.684Z,21.86
2023-05-11T11:30:41.500Z,22.07
2023-05-11T11:33:18.304Z,22.14
2023-05-11T11:35:50.672Z,22.17
2023-05-11T11:38:22.760Z,22.22
2023-05-11T11:40:54.555Z,22.30
2023-05-11T11:43:28.810Z,22.36
2023-05-11T11:46:02.976Z,22.39
2023-05-11T11:48:57.005Z,22.50
2023-05-11T11:51:29.617Z,22.34
2023-05-11T11:54:01.351Z,22.06
2023-05-11T11:56:36.778Z,21.65
2023-05-11T11:59:10.240Z,21.51
2023-05-11T12:01:42.776Z,21.50
2023-05-11T12:04:51.307Z,21.59
2023-05-11T12:07:23.185Z,21.71
2023-05-11T12:09:57.621Z,21.89
2023-05-11T12:12:30.230Z,21.92
2023-05-11T12:15:03.617Z,21.99
2023-05-11T12:17:39.329Z,22.01
2023-05-11T12:20:32.803Z,22.00
2023-05-11T12:23:04.626Z,22.08
2023-05-11T12:25:37.665Z,22.25
2023-05-11T12:28:11.202Z,22.35
2023-05-11T12:33:26.842Z,21.83
2023-05-11T12:35:58.658Z,21.58
2023-05-11T12:38:30.242Z,21.33
2023-05-11T12:41:02.380Z,21.10
2023-05-11T12:43:34.592Z,20.81
2023-05-11T12:46:07.275Z,20.49
2023-05-11T12:48:39.572Z,20.29
2023-05-11T12:51:11.603Z,20.11
2023-05-11T12:53:43.422Z,19.98
2023-05-11T12:56:15.588Z,19.77
2023-05-11T12:58:47.358Z,19.59
2023-05-11T13:01:20.639Z,19.53
2023-05-11T13:03:52.794Z,19.59
2023-05-11T13:06:24.653Z,19.72
2023-05-11T13:08:56.740Z,19.91
2023-05-11T13:11:28.672Z,20.19
2023-05-11T13:14:00.438Z,20.44
2023-05-11T13:16:33.946Z,20.57
2023-05-11T13:19:08.602Z,20.58
2023-05-11T13:21:40.341Z,20.48
2023-05-11T13:24:43.644Z,20.34
2023-05-11T13:27:15.926Z,20.22
2023-05-11T13:29:48.051Z,20.09
2023-05-11T13:32:20.040Z,19.99
2023-05-11T13:34:51.722Z,19.85
2023-05-11T13:37:25.402Z,19.76
2023-05-11T13:39:57.392Z,19.63
2023-05-11T13:42:29.917Z,19.46
2023-05-11T13:45:01.524Z,19.31
2023-05-11T13:47:34.646Z,19.22
2023-05-11T13:50:09.200Z,19.13
2023-05-11T13:52:40.980Z,19.01
2023-05-11T13:55:23.690Z,18.95
2023-05-11T13:57:56.479Z,18.86
2023-05-11T14:00:28.205Z,18.79
2023-05-11T14:03:00.490Z,18.75
2023-05-11T14:05:32.616Z,18.72
2023-05-11T14:08:05.905Z,18.69
2023-05-11T14:10:37.863Z,18.66
2023-05-11T14:13:09.818Z,18.62
2023-05-11T14:15:41.824Z,18.54
2023-05-11T14:18:14.221Z,18.42
2023-05-11T14:20:46.285Z,18.38
2023-05-11T14:23:18.350Z,18.36
2023-05-11T14:25:50.384Z,18.40
2023-05-11T14:28:22.150Z,18.44
2023-05-11T14:30:53.755Z,18.41
2023-05-11T14:33:25.574Z,18.39
2023-05-11T14:35:57.184Z,18.38
2023-05-11T14:38:29.399Z,18.38
2023-05-11T14:41:02.067Z,18.36
2023-05-11T14:43:34.922Z,18.35
2023-05-11T14:46:06.973Z,18.39
2023-05-11T14:48:38.878Z,18.43
2023-05-11T14:51:10.395Z,18.40
2023-05-11T14:53:42.324Z,18.34
2023-05-11T14:56:15.281Z,18.25
2023-05-11T14:58:47.253Z,18.12
2023-05-11T15:01:19.021Z,18.05
2023-05-11T15:03:50.801Z,17.99
2023-05-11T15:06:23.608Z,17.97
2023-05-11T15:08:55.376Z,17.95
2023-05-11T15:11:27.129Z,17.90
2023-05-11T15:13:58.905Z,17.82
2023-05-11T15:16:31.183Z,17.77
2023-05-11T15:19:02.975Z,17.71
2023-05-11T15:21:34.925Z,17.62
2023-05-11T15:24:08.672Z,17.55
2023-05-11T15:26:40.349Z,17.46
2023-05-11T15:29:14.110Z,17.38
2023-05-11T15:31:45.819Z,17.32
2023-05-11T15:34:17.504Z,17.28
2023-05-11T15:36:49.899Z,17.27
2023-05-11T15:39:21.673Z,17.28
2023-05-11T15:41:53.364Z,17.27
2023-05-11T15:44:24.997Z,17.23
2023-05-11T15:46:56.813Z,17.22
2023-05-11T15:49:28.602Z,17.21
2023-05-11T15:52:00.458Z,17.19
2023-05-11T15:54:35.232Z,17.18
2023-05-11T15:57:06.977Z,17.17
2023-05-11T15:59:38.794Z,17.14
2023-05-11T16:02:10.740Z,17.12
2023-05-11T16:04:42.537Z,17.08
2023-05-11T16:07:14.231Z,17.05
2023-05-11T16:09:46.503Z,17.03
2023-05-11T16:12:18.205Z,16.98
2023-05-11T16:14:50.483Z,16.94
2023-05-11T16:17:22.241Z,16.90
2023-05-11T16:19:54.291Z,16.86
2023-05-11T16:22:26.326Z,16.83
2023-05-11T16:24:58.578Z,16.78
2023-05-11T16:27:30.545Z,16.74
2023-05-11T16:30:21.786Z,16.71
2023-05-11T16:32:37.384Z,16.69
2023-05-11T16:35:09.344Z,16.65
2023-05-11T16:37:42.762Z,16.61
2023-05-11T16:40:14.737Z,16.59
2023-05-11T16:42:47.317Z,16.55
2023-05-11T16:45:19.343Z,16.50
2023-05-11T16:47:52.051Z,16.46
2023-05-11T16:50:23.746Z,16.44
2023-05-11T16:52:55.710Z,16.39
2023-05-11T16:55:28.067Z,16.34
2023-05-11T16:57:59.876Z,16.29
2023-05-11T17:00:34.085Z,16.22
2023-05-11T17:03:05.494Z,16.17
2023-05-11T17:05:37.754Z,16.12
2023-05-11T17:08:09.452Z,16.06
2023-05-11T17:10:41.807Z,16.01
2023-05-11T17:13:13.572Z,15.98
2023-05-11T17:15:45.193Z,15.92
2023-05-11T17:18:17.595Z,15.87
2023-05-11T17:20:57.259Z,15.81
2023-05-11T17:23:28.865Z,15.77
2023-05-11T17:26:00.600Z,15.72
2023-05-11T17:28:32.457Z,15.67
2023-05-11T17:31:14.451Z,15.60
2023-05-11T17:33:46.674Z,15.54
2023-05-11T17:36:18.811Z,15.46
2023-05-11T17:38:51.607Z,15.42
2023-05-11T17:41:23.274Z,15.38
2023-05-11T17:43:55.077Z,15.33
2023-05-11T17:46:28.293Z,15.28
2023-05-11T17:49:00.214Z,15.24
2023-05-11T17:51:31.994Z,15.21
2023-05-11T17:54:03.585Z,15.17
2023-05-11T17:56:35.368Z,15.13
2023-05-11T17:59:07.443Z,15.07
2023-05-11T18:01:39.761Z,15.03
2023-05-11T18:04:13.332Z,15.00
2023-05-11T18:06:45.504Z,14.96
2023-05-11T18:09:19.180Z,14.92
2023-05-11T18:11:51.229Z,14.89
2023-05-11T18:14:22.947Z,14.86
2023-05-11T18:16:54.573Z,14.85
2023-05-11T18:19:27.068Z,14.83
2023-05-11T18:22:00.661Z,14.82
2023-05-11T18:24:32.432Z,14.84
2023-05-11T18:27:04.781Z,14.89
2023-05-11T18:29:37.441Z,14.91
2023-05-11T18:34:52.560Z,14.93
2023-05-11T18:37:25.097Z,14.94
2023-05-11T18:39:57.139Z,14.94
2023-05-11T18:42:28.808Z,14.94
2023-05-11T18:45:01.335Z,14.93
2023-05-11T18:47:36.131Z,14.95
2023-05-11T18:50:08.750Z,14.98
2023-05-11T18:52:41.632Z,15.01
2023-05-11T18:55:13.551Z,15.02
2023-05-11T18:57:46.158Z,15.01
2023-05-11T19:00:19.055Z,15.00
2023-05-11T19:02:52.206Z,14.97
2023-05-11T19:05:24.098Z,14.94
2023-05-11T19:07:55.936Z,14.93
2023-05-11T19:10:28.158Z,14.89
2023-05-11T19:13:00.170Z,14.85
2023-05-11T19:15:33.388Z,14.84
2023-05-11T19:18:05.487Z,14.79
2023-05-11T19:20:39.449Z,14.74
2023-05-11T19:23:11.798Z,14.72
2023-05-11T19:25:44.117Z,14.68
2023-05-11T19:28:16.143Z,14.64
2023-05-11T19:30:47.899Z,14.60
2023-05-11T19:33:20.278Z,14.53
2023-05-11T19:35:52.156Z,14.47
2023-05-11T19:38:24.019Z,14.41
2023-05-11T19:40:56.434Z,14.34
2023-05-11T19:43:29.043Z,14.30
2023-05-11T19:46:02.774Z,14.26
2023-05-11T19:48:35.558Z,14.20
2023-05-11T19:51:07.277Z,14.17
2023-05-11T19:53:39.127Z,14.15
2023-05-11T19:56:10.800Z,14.13
2023-05-11T19:58:42.994Z,14.10
2023-05-11T20:01:15.269Z,14.06
2023-05-11T20:03:47.227Z,14.03
2023-05-11T20:06:19.284Z,14.00
2023-05-11T20:08:51.709Z,13.97
2023-05-11T20:11:23.435Z,13.94
2023-05-11T20:13:55.978Z,13.92
2023-05-11T20:16:28.834Z,13.91
2023-05-11T20:19:00.934Z,13.89
2023-05-11T20:21:33.852Z,13.88
2023-05-11T20:24:05.515Z,13.86
2023-05-11T20:26:37.620Z,13.83
2023-05-11T20:29:10.392Z,13.80
2023-05-11T20:31:42.158Z,13.77
2023-05-11T20:34:14.125Z,13.73
2023-05-11T20:36:47.424Z,13.69
2023-05-11T20:39:19.339Z,13.64
2023-05-11T20:41:51.367Z,13.59
2023-05-11T20:44:22.855Z,13.53
2023-05-11T20:46:54.744Z,13.48
2023-05-11T20:49:38.387Z,13.42
2023-05-11T20:52:00.414Z,13.37
2023-05-11T20:54:34.041Z,13.31
2023-05-11T20:57:05.987Z,13.27
2023-05-11T21:02:11.380Z,13.16
2023-05-11T21:04:42.965Z,13.12
2023-05-11T21:07:14.711Z,13.06
2023-05-11T21:09:46.504Z,13.02
2023-05-11T21:12:19.411Z,12.99
2023-05-11T21:14:51.197Z,12.97
2023-05-11T21:17:22.803Z,12.96
2023-05-11T21:19:54.678Z,12.96
2023-05-11T21:22:26.692Z,12.96
2023-05-11T21:24:58.399Z,12.97
2023-05-11T21:27:30.609Z,12.98
2023-05-11T21:30:02.383Z,12.98
2023-05-11T21:32:34.717Z,12.99
2023-05-11T21:35:07.239Z,13.02
2023-05-11T21:37:39.491Z,13.03
2023-05-11T21:40:12.222Z,13.03
2023-05-11T21:42:45.150Z,13.04
2023-05-11T21:45:16.906Z,13.05
2023-05-11T21:47:49.058Z,13.05
2023-05-11T21:50:21.014Z,13.05
2023-05-11T21:52:53.029Z,13.07
2023-05-11T21:55:24.718Z,13.10
2023-05-11T21:57:56.654Z,13.11
2023-05-11T22:00:28.458Z,13.11
2023-05-11T22:03:01.505Z,13.13
2023-05-11T22:05:33.295Z,13.14
2023-05-11T22:08:13.798Z,13.13
2023-05-11T22:10:38.653Z,13.13
2023-05-11T22:13:10.546Z,13.11
2023-05-11T22:15:42.402Z,13.09
2023-05-11T22:18:14.072Z,13.08
2023-05-11T22:20:45.635Z,13.05
2023-05-11T22:23:17.576Z,13.03
2023-05-11T22:25:49.207Z,13.01
2023-05-11T22:28:21.163Z,12.98
2023-05-11T22:30:53.209Z,12.97
2023-05-11T22:33:25.458Z,12.94
2023-05-11T22:35:57.514Z,12.90
2023-05-11T22:38:29.269Z,12.86
2023-05-11T22:41:02.874Z,12.81
2023-05-11T22:43:36.088Z,12.80
2023-05-11T22:46:08.052Z,12.77
2023-05-11T22:48:40.101Z,12.73
2023-05-11T22:51:11.887Z,12.70
2023-05-11T22:53:44.680Z,12.68
2023-05-11T22:56:16.920Z,12.65
2023-05-11T22:58:48.843Z,12.60
2023-05-11T23:01:21.004Z,12.54
2023-05-11T23:06:49.051Z,12.48
2023-05-11T23:09:21.213Z,12.45
2023-05-11T23:11:53.327Z,12.43
2023-05-11T23:14:25.241Z,12.40
2023-05-11T23:16:57.362Z,12.39
2023-05-11T23:19:29.286Z,12.38
2023-05-11T23:22:01.050Z,12.35
2023-05-11T23:24:33.156Z,12.31
2023-05-11T23:27:04.952Z,12.27
2023-05-11T23:29:37.257Z,12.23
2023-05-11T23:32:09.024Z,12.21
2023-05-11T23:34:40.701Z,12.21
2023-05-11T23:37:12.440Z,12.21
2023-05-11T23:39:44.125Z,12.25
2023-05-11T23:42:15.862Z,12.24
2023-05-11T23:44:47.622Z,12.26
2023-05-11T23:47:19.186Z,12.29
2023-05-11T23:49:50.930Z,12.29
2023-05-11T23:52:22.779Z,12.31
2023-05-11T23:54:54.348Z,12.31
2023-05-11T23:57:26.126Z,12.32
2023-05-11T23:59:58.176Z,12.32
